Time;durP1;ratioP1;P1;durP2;ratioP2;P2;SDS_P1;SDS_P2;PMS_P1;PMS_P2;Temp;Humidity;BMP_temperature;BMP_pressure;BME280_temperature;BME280_humidity;BME280_pressure;Samples;Min_cycle;Max_cycle;Signal;HPM_P1;HPM_P2
2021/11/11 00:01:57;;;;;;;30.13;15.25;;;;;;;;;;4959567;28;20039;-59
2021/11/11 00:04:23;;;;;;;30.17;14.63;;;;;;;;;;4961661;28;20045;-57
2021/11/11 00:06:49;;;;;;;30.83;13.68;;;;;;;;;;4961486;28;20315;-58
2021/11/11 00:09:14;;;;;;;31.95;15.05;;;;;;;;;;4956978;28;20046;-59
2021/11/11 00:11:40;;;;;;;32.63;14.68;;;;;;;;;;4962338;28;20390;-58
2021/11/11 00:14:06;;;;;;;31.42;14.95;;;;;;;;;;4961457;28;20027;-59
2021/11/11 00:16:32;;;;;;;28.58;13.38;;;;;;;;;;4961092;28;20420;-58
2021/11/11 00:18:58;;;;;;;25.52;12.52;;;;;;;;;;4960360;28;20026;-58
2021/11/11 00:21:24;;;;;;;28.38;13.77;;;;;;;;;;4962093;28;20055;-58
2021/11/11 00:23:50;;;;;;;26.02;12.55;;;;;;;;;;4961509;28;20030;-58
2021/11/11 00:26:15;;;;;;;30.13;15.18;;;;;;;;;;4966256;28;20031;-58
2021/11/11 00:28:41;;;;;;;35.63;16.48;;;;;;;;;;4959451;28;20089;-58
2021/11/11 00:31:06;;;;;;;33.15;14.95;;;;;;;;;;4960263;28;20049;-57
2021/11/11 00:33:32;;;;;;;42.45;16.20;;;;;;;;;;4962246;28;20409;-58
2021/11/11 00:35:57;;;;;;;44.70;16.92;;;;;;;;;;4959898;28;20106;-58
2021/11/11 00:38:23;;;;;;;34.55;14.88;;;;;;;;;;4957638;28;20505;-58
2021/11/11 00:40:49;;;;;;;28.58;13.88;;;;;;;;;;4958332;28;20031;-58
2021/11/11 00:43:15;;;;;;;31.00;13.73;;;;;;;;;;4962038;28;20030;-58
2021/11/11 00:45:40;;;;;;;42.50;17.52;;;;;;;;;;4962250;28;20430;-57
2021/11/11 00:48:07;;;;;;;41.83;17.67;;;;;;;;;;4961104;28;20018;-57
2021/11/11 00:50:33;;;;;;;39.65;17.27;;;;;;;;;;4962426;28;20034;-57
2021/11/11 00:52:59;;;;;;;47.30;19.60;;;;;;;;;;4961533;28;20121;-57
2021/11/11 00:55:25;;;;;;;56.40;22.83;;;;;;;;;;4964193;28;20383;-58
2021/11/11 00:57:51;;;;;;;50.75;23.30;;;;;;;;;;4967526;28;20185;-57
2021/11/11 01:00:18;;;;;;;48.80;19.98;;;;;;;;;;4962330;28;20023;-58
2021/11/11 01:02:46;;;;;;;45.85;19.83;;;;;;;;;;4962883;28;20066;-58
2021/11/11 01:05:11;;;;;;;45.45;20.10;;;;;;;;;;4962542;28;20084;-58
2021/11/11 01:07:37;;;;;;;43.83;20.63;;;;;;;;;;4966845;28;20421;-58
2021/11/11 01:10:09;;;;;;;41.67;18.95;;;;;;;;;;4966936;28;20058;-59
2021/11/11 01:12:35;;;;;;;46.70;19.25;;;;;;;;;;4961743;28;20502;-58
2021/11/11 01:15:01;;;;;;;42.53;19.77;;;;;;;;;;4964927;28;20042;-58
2021/11/11 01:17:27;;;;;;;44.35;20.80;;;;;;;;;;4967099;28;20034;-58
2021/11/11 01:19:52;;;;;;;45.53;20.85;;;;;;;;;;4963822;28;20027;-58
2021/11/11 01:22:18;;;;;;;43.40;19.63;;;;;;;;;;4964464;28;20027;-58
2021/11/11 01:24:43;;;;;;;48.53;20.58;;;;;;;;;;4962218;28;20109;-58
2021/11/11 01:27:09;;;;;;;44.42;20.30;;;;;;;;;;4963289;28;20031;-58
2021/11/11 01:29:34;;;;;;;43.50;18.25;;;;;;;;;;4957480;28;20045;-58
2021/11/11 01:32:00;;;;;;;37.10;17.25;;;;;;;;;;4963617;28;20023;-58
2021/11/11 01:34:28;;;;;;;35.28;16.42;;;;;;;;;;4962466;28;20042;-56
2021/11/11 01:36:54;;;;;;;39.45;16.25;;;;;;;;;;4965986;28;20497;-59
2021/11/11 01:39:20;;;;;;;37.65;16.20;;;;;;;;;;4977649;28;20043;-56
2021/11/11 01:41:46;;;;;;;34.83;16.52;;;;;;;;;;4959571;28;20523;-56
2021/11/11 01:44:15;;;;;;;35.70;16.52;;;;;;;;;;4964671;28;20112;-58
2021/11/11 01:46:40;;;;;;;33.75;16.08;;;;;;;;;;4962189;28;20031;-57
2021/11/11 01:49:06;;;;;;;38.95;16.25;;;;;;;;;;4961801;28;20041;-57
2021/11/11 01:51:31;;;;;;;41.50;16.80;;;;;;;;;;4964308;28;20026;-58
2021/11/11 01:53:57;;;;;;;40.80;16.77;;;;;;;;;;4965088;28;20114;-57
2021/11/11 01:56:23;;;;;;;36.47;17.20;;;;;;;;;;4962737;28;20031;-56
2021/11/11 01:58:50;;;;;;;32.30;15.45;;;;;;;;;;4961456;28;20030;-58
2021/11/11 02:01:16;;;;;;;41.05;17.77;;;;;;;;;;4957742;28;20027;-59
2021/11/11 02:03:42;;;;;;;43.33;17.83;;;;;;;;;;4957361;28;20019;-59
2021/11/11 02:06:09;;;;;;;38.33;16.98;;;;;;;;;;4960160;28;20114;-58
2021/11/11 02:08:34;;;;;;;42.10;18.35;;;;;;;;;;4963583;28;20023;-59
2021/11/11 02:11:00;;;;;;;35.65;16.52;;;;;;;;;;4957661;28;20081;-58
2021/11/11 02:13:25;;;;;;;35.50;16.23;;;;;;;;;;4960747;28;20030;-58
2021/11/11 02:15:51;;;;;;;35.40;16.90;;;;;;;;;;4964183;28;20088;-59
2021/11/11 02:18:18;;;;;;;36.10;16.48;;;;;;;;;;4964438;28;20069;-59
2021/11/11 02:20:44;;;;;;;39.50;15.85;;;;;;;;;;4961708;28;20026;-58
2021/11/11 02:23:12;;;;;;;32.92;15.88;;;;;;;;;;4958491;28;20537;-59
2021/11/11 02:25:39;;;;;;;39.35;17.60;;;;;;;;;;4963555;28;20490;-58
2021/11/11 02:28:08;;;;;;;41.88;19.15;;;;;;;;;;4963716;28;20122;-59
2021/11/11 02:30:36;;;;;;;39.92;17.58;;;;;;;;;;4962134;28;20061;-58
2021/11/11 02:33:10;;;;;;;45.15;20.33;;;;;;;;;;4960901;28;20133;-58
2021/11/11 02:35:36;;;;;;;37.05;18.80;;;;;;;;;;4960970;28;20022;-58
2021/11/11 02:38:02;;;;;;;39.70;18.00;;;;;;;;;;4963644;28;20054;-58
2021/11/11 02:40:31;;;;;;;45.03;20.13;;;;;;;;;;4961185;28;20066;-59
2021/11/11 02:42:56;;;;;;;37.00;19.52;;;;;;;;;;4958916;28;20031;-58
2021/11/11 02:45:28;;;;;;;38.60;18.70;;;;;;;;;;4957710;28;20386;-58
2021/11/11 02:47:55;;;;;;;39.65;18.58;;;;;;;;;;4958737;28;20019;-58
2021/11/11 02:50:21;;;;;;;38.00;18.60;;;;;;;;;;4962546;28;20066;-58
2021/11/11 02:52:49;;;;;;;34.40;16.90;;;;;;;;;;4961831;28;20062;-58
2021/11/11 02:55:15;;;;;;;36.15;16.65;;;;;;;;;;4963453;28;20110;-58
2021/11/11 02:57:42;;;;;;;36.40;16.27;;;;;;;;;;4958847;28;20039;-58
2021/11/11 03:00:13;;;;;;;35.42;17.15;;;;;;;;;;4960369;28;20121;-58
2021/11/11 03:02:44;;;;;;;35.17;16.95;;;;;;;;;;4962789;28;20094;-58
2021/11/11 03:05:13;;;;;;;35.25;17.60;;;;;;;;;;4962092;28;20034;-58
2021/11/11 03:07:39;;;;;;;37.57;17.20;;;;;;;;;;4961467;28;20572;-58
2021/11/11 03:10:07;;;;;;;37.90;17.67;;;;;;;;;;4962405;28;20265;-58
2021/11/11 03:12:32;;;;;;;37.88;17.35;;;;;;;;;;4963215;28;20145;-59
2021/11/11 03:14:58;;;;;;;31.30;15.00;;;;;;;;;;4961552;28;20038;-58
2021/11/11 03:17:25;;;;;;;31.20;15.45;;;;;;;;;;4957605;28;20041;-58
2021/11/11 03:19:51;;;;;;;37.65;16.00;;;;;;;;;;4960687;28;20483;-59
2021/11/11 03:22:20;;;;;;;40.00;16.95;;;;;;;;;;4962867;28;20411;-58
2021/11/11 03:24:50;;;;;;;43.15;17.27;;;;;;;;;;4960612;28;20041;-58
2021/11/11 03:27:15;;;;;;;;;;;;;;;;;;4958372;28;20069;-57
2021/11/11 03:29:41;;;;;;;33.60;14.65;;;;;;;;;;4961879;28;19945;-57
2021/11/11 03:32:07;;;;;;;43.13;17.48;;;;;;;;;;4961194;28;20494;-58
2021/11/11 03:34:33;;;;;;;33.80;15.30;;;;;;;;;;4962442;28;20045;-58
2021/11/11 03:36:58;;;;;;;37.17;16.80;;;;;;;;;;4963156;28;20035;-57
2021/11/11 03:39:25;;;;;;;37.17;15.80;;;;;;;;;;4963893;28;20026;-58
2021/11/11 03:41:52;;;;;;;34.22;15.20;;;;;;;;;;4957802;28;20093;-58
2021/11/11 03:44:19;;;;;;;38.10;16.85;;;;;;;;;;4961162;28;20023;-58
2021/11/11 03:46:47;;;;;;;33.00;16.45;;;;;;;;;;4958173;28;20582;-58
2021/11/11 03:49:13;;;;;;;33.97;16.02;;;;;;;;;;4960897;28;20147;-59
2021/11/11 03:51:39;;;;;;;36.05;16.85;;;;;;;;;;4961173;28;20141;-58
2021/11/11 03:54:06;;;;;;;35.08;16.52;;;;;;;;;;4960478;28;20062;-58
2021/11/11 03:56:36;;;;;;;34.28;16.52;;;;;;;;;;4959193;28;20035;-58
2021/11/11 03:59:01;;;;;;;;;;;;;;;;;;4960324;28;20026;-57
2021/11/11 04:01:27;;;;;;;35.35;15.57;;;;;;;;;;4961338;28;19937;-58
2021/11/11 04:03:52;;;;;;;37.70;16.05;;;;;;;;;;4961348;28;20035;-58
2021/11/11 04:06:18;;;;;;;30.63;15.18;;;;;;;;;;4958904;28;20065;-58
2021/11/11 04:08:43;;;;;;;34.13;14.82;;;;;;;;;;4960204;28;20456;-57
2021/11/11 04:11:09;;;;;;;32.05;16.45;;;;;;;;;;4961879;28;20073;-58
2021/11/11 04:13:35;;;;;;;30.33;15.25;;;;;;;;;;4963015;28;20034;-57
2021/11/11 04:16:01;;;;;;;35.65;15.57;;;;;;;;;;4963708;28;20425;-58
2021/11/11 04:18:26;;;;;;;37.15;15.75;;;;;;;;;;4962020;28;20023;-57
2021/11/11 04:20:52;;;;;;;39.10;16.45;;;;;;;;;;4959135;28;20039;-57
2021/11/11 04:23:18;;;;;;;41.20;16.98;;;;;;;;;;4967300;28;20034;-58
2021/11/11 04:28:20;;;;;;;35.47;15.95;;;;;;;;;;4965728;28;20038;-58
2021/11/11 04:30:48;;;;;;;32.83;16.75;;;;;;;;;;4961199;28;20031;-58
2021/11/11 04:33:15;;;;;;;38.35;16.27;;;;;;;;;;4962022;28;20069;-58
2021/11/11 04:35:43;;;;;;;39.20;17.02;;;;;;;;;;4962924;28;20041;-57
2021/11/11 04:41:12;;;;;;;39.03;16.70;;;;;;;;;;4964664;28;20037;-58
2021/11/11 04:43:58;;;;;;;46.47;18.08;;;;;;;;;;4966912;28;20034;-58
2021/11/11 04:52:08;;;;;;;41.40;18.25;;;;;;;;;;4962524;28;20091;-58
2021/11/11 05:00:22;;;;;;;49.25;18.92;;;;;;;;;;4961404;28;20070;-58
2021/11/11 05:05:19;;;;;;;46.75;20.17;;;;;;;;;;4962266;28;20042;-58
2021/11/11 05:07:45;;;;;;;44.35;19.55;;;;;;;;;;4966415;28;20031;-58
2021/11/11 05:10:10;;;;;;;47.67;21.15;;;;;;;;;;4965762;28;20501;-58
2021/11/11 05:12:36;;;;;;;53.75;20.85;;;;;;;;;;4965328;28;20042;-58
2021/11/11 05:15:03;;;;;;;49.33;21.05;;;;;;;;;;4966022;28;20031;-58
2021/11/11 05:17:29;;;;;;;50.15;21.67;;;;;;;;;;4963026;28;20774;-58
2021/11/11 05:19:55;;;;;;;46.25;20.15;;;;;;;;;;4963488;28;20360;-57
2021/11/11 05:22:21;;;;;;;41.22;17.75;;;;;;;;;;4962621;28;20069;-58
2021/11/11 05:24:47;;;;;;;43.22;19.30;;;;;;;;;;4961138;28;20054;-57
2021/11/11 05:27:14;;;;;;;45.13;18.85;;;;;;;;;;4964009;28;20106;-57
2021/11/11 05:29:39;;;;;;;59.72;22.33;;;;;;;;;;4962468;28;20177;-57
2021/11/11 05:32:05;;;;;;;73.45;24.70;;;;;;;;;;4961814;28;20141;-58
2021/11/11 05:34:30;;;;;;;84.32;28.50;;;;;;;;;;4964643;28;20057;-58
2021/11/11 05:36:56;;;;;;;75.65;27.70;;;;;;;;;;4965525;28;20026;-58
2021/11/11 05:39:21;;;;;;;75.32;27.63;;;;;;;;;;4960569;28;20316;-57
2021/11/11 05:41:47;;;;;;;69.28;26.83;;;;;;;;;;4965712;28;20038;-57
2021/11/11 05:44:12;;;;;;;61.85;24.25;;;;;;;;;;4960733;28;20039;-57
2021/11/11 05:46:37;;;;;;;47.13;20.60;;;;;;;;;;4964881;28;20513;-58
2021/11/11 05:49:03;;;;;;;41.17;18.73;;;;;;;;;;4964102;28;20441;-57
2021/11/11 05:51:28;;;;;;;41.47;18.95;;;;;;;;;;4962362;28;20041;-58
2021/11/11 05:53:54;;;;;;;41.65;17.75;;;;;;;;;;4962585;28;20090;-57
2021/11/11 05:56:19;;;;;;;39.92;18.60;;;;;;;;;;4962572;28;20034;-58
2021/11/11 05:58:45;;;;;;;39.10;18.15;;;;;;;;;;4963699;28;20113;-58
2021/11/11 06:01:11;;;;;;;46.33;19.98;;;;;;;;;;4964035;28;20026;-58
2021/11/11 06:03:37;;;;;;;39.00;18.85;;;;;;;;;;4960132;28;20030;-57
2021/11/11 06:06:02;;;;;;;56.05;22.42;;;;;;;;;;4964555;28;20035;-58
2021/11/11 06:08:28;;;;;;;50.33;22.33;;;;;;;;;;4966104;28;20030;-57
2021/11/11 06:10:54;;;;;;;54.85;23.85;;;;;;;;;;4962480;28;20058;-58
2021/11/11 06:13:21;;;;;;;66.68;26.20;;;;;;;;;;4960111;28;20031;-58
2021/11/11 06:15:46;;;;;;;77.47;31.85;;;;;;;;;;4960007;28;20093;-58
2021/11/11 06:18:13;;;;;;;78.57;32.47;;;;;;;;;;4962515;28;20445;-57
2021/11/11 06:20:44;;;;;;;74.90;32.85;;;;;;;;;;4960462;28;20062;-56
2021/11/11 06:23:10;;;;;;;72.20;31.25;;;;;;;;;;4958149;28;20030;-56
2021/11/11 06:25:35;;;;;;;62.25;27.58;;;;;;;;;;4958985;28;20058;-57
2021/11/11 06:28:02;;;;;;;54.70;24.77;;;;;;;;;;4962840;28;20031;-57
2021/11/11 06:30:28;;;;;;;57.08;25.27;;;;;;;;;;4966088;28;20062;-58
2021/11/11 06:32:54;;;;;;;55.85;26.48;;;;;;;;;;4963970;28;20027;-58
2021/11/11 06:35:19;;;;;;;53.03;25.13;;;;;;;;;;4963044;28;20533;-58
2021/11/11 06:37:45;;;;;;;55.63;26.02;;;;;;;;;;4960463;28;20505;-59
2021/11/11 06:40:11;;;;;;;54.38;24.75;;;;;;;;;;4963252;28;20018;-57
2021/11/11 06:42:37;;;;;;;61.65;26.10;;;;;;;;;;4961508;28;20102;-56
2021/11/11 06:45:09;;;;;;;58.05;24.90;;;;;;;;;;4963144;28;20026;-57
2021/11/11 06:47:35;;;;;;;56.88;24.52;;;;;;;;;;4961129;28;20027;-57
2021/11/11 06:50:00;;;;;;;63.60;26.77;;;;;;;;;;4957946;28;20413;-58
2021/11/11 06:52:26;;;;;;;57.00;25.60;;;;;;;;;;4965609;28;20031;-58
2021/11/11 06:54:51;;;;;;;56.80;23.52;;;;;;;;;;4962841;28;20030;-57
2021/11/11 06:57:17;;;;;;;52.95;23.33;;;;;;;;;;4959766;28;20478;-57
2021/11/11 06:59:42;;;;;;;55.15;22.95;;;;;;;;;;4960978;28;20026;-57
2021/11/11 07:02:08;;;;;;;50.80;22.88;;;;;;;;;;4963744;28;20077;-57
2021/11/11 07:04:33;;;;;;;47.85;22.73;;;;;;;;;;4963380;28;20035;-58
2021/11/11 07:06:59;;;;;;;59.20;24.40;;;;;;;;;;4963492;28;20450;-58
2021/11/11 07:09:24;;;;;;;55.53;22.67;;;;;;;;;;4961877;28;20493;-57
2021/11/11 07:11:50;;;;;;;56.67;23.83;;;;;;;;;;4960811;28;20055;-58
2021/11/11 07:14:17;;;;;;;57.22;24.15;;;;;;;;;;4960169;28;20049;-58
2021/11/11 07:16:45;;;;;;;57.58;26.23;;;;;;;;;;4960479;28;20221;-58
2021/11/11 07:19:10;;;;;;;56.85;24.65;;;;;;;;;;4961637;28;20042;-57
2021/11/11 07:21:35;;;;;;;55.00;24.77;;;;;;;;;;4962133;28;20504;-58
2021/11/11 07:24:01;;;;;;;56.42;26.00;;;;;;;;;;4962958;28;20041;-58
2021/11/11 07:26:27;;;;;;;60.97;27.77;;;;;;;;;;4955552;28;20031;-57
2021/11/11 07:28:53;;;;;;;65.25;28.80;;;;;;;;;;4965599;28;20086;-56
2021/11/11 07:31:23;;;;;;;73.47;32.58;;;;;;;;;;4960780;28;20023;-58
2021/11/11 07:33:48;;;;;;;69.95;32.60;;;;;;;;;;4958813;28;20050;-58
2021/11/11 07:36:14;;;;;;;78.28;34.72;;;;;;;;;;4964380;28;20171;-57
2021/11/11 07:38:39;;;;;;;83.20;37.05;;;;;;;;;;4959249;28;20027;-56
2021/11/11 07:41:05;;;;;;;71.85;34.80;;;;;;;;;;4962643;28;20027;-58
2021/11/11 07:43:30;;;;;;;68.47;34.08;;;;;;;;;;4958798;28;20031;-57
2021/11/11 07:45:56;;;;;;;67.10;31.60;;;;;;;;;;4958394;28;20027;-57
2021/11/11 07:48:22;;;;;;;66.05;30.13;;;;;;;;;;4964815;28;20038;-57
2021/11/11 07:50:48;;;;;;;68.88;30.08;;;;;;;;;;4963620;28;20046;-57
2021/11/11 07:53:13;;;;;;;63.67;32.03;;;;;;;;;;4960782;28;20027;-58
2021/11/11 07:55:41;;;;;;;71.25;33.90;;;;;;;;;;4962906;28;20130;-56
2021/11/11 07:58:08;;;;;;;69.82;32.35;;;;;;;;;;4960054;28;20035;-57
2021/11/11 08:00:34;;;;;;;67.85;32.22;;;;;;;;;;4965518;28;20034;-58
2021/11/11 08:03:00;;;;;;;62.05;30.40;;;;;;;;;;4961956;28;20058;-57
2021/11/11 08:05:26;;;;;;;65.65;30.65;;;;;;;;;;4965354;28;20106;-57
2021/11/11 08:07:51;;;;;;;62.45;30.55;;;;;;;;;;4965197;28;20383;-58
2021/11/11 08:10:19;;;;;;;64.38;32.92;;;;;;;;;;4968312;28;20034;-57
2021/11/11 08:12:44;;;;;;;74.18;33.22;;;;;;;;;;4967404;28;20221;-57
2021/11/11 08:15:11;;;;;;;62.45;32.65;;;;;;;;;;4962675;28;20275;-58
2021/11/11 08:17:37;;;;;;;68.13;32.78;;;;;;;;;;4966951;28;20027;-58
2021/11/11 08:20:04;;;;;;;68.65;33.17;;;;;;;;;;4962552;28;20042;-57
2021/11/11 08:22:30;;;;;;;69.70;32.33;;;;;;;;;;4964347;28;20397;-58
2021/11/11 08:24:56;;;;;;;80.30;36.33;;;;;;;;;;4969346;28;21932;-59
2021/11/11 08:27:23;;;;;;;70.10;31.33;;;;;;;;;;4963496;28;20454;-58
2021/11/11 08:29:49;;;;;;;69.32;31.45;;;;;;;;;;4979065;28;20019;-58
2021/11/11 08:32:15;;;;;;;59.70;27.92;;;;;;;;;;4961575;28;20554;-58
2021/11/11 08:34:43;;;;;;;62.60;33.40;;;;;;;;;;4959215;28;20035;-59
2021/11/11 08:37:09;;;;;;;59.25;28.95;;;;;;;;;;4967376;28;20050;-59
2021/11/11 08:39:35;;;;;;;49.45;24.15;;;;;;;;;;4963466;28;20106;-60
2021/11/11 08:42:01;;;;;;;47.50;21.83;;;;;;;;;;4959875;28;20031;-58
2021/11/11 08:44:27;;;;;;;45.10;23.80;;;;;;;;;;4963577;28;20493;-58
2021/11/11 08:46:53;;;;;;;37.25;20.52;;;;;;;;;;4963926;28;20035;-58
2021/11/11 08:49:19;;;;;;;38.03;20.60;;;;;;;;;;4963779;28;20422;-58
2021/11/11 08:51:48;;;;;;;35.38;18.83;;;;;;;;;;4966970;28;20026;-59
2021/11/11 08:54:14;;;;;;;34.88;18.58;;;;;;;;;;4964354;28;20029;-59
2021/11/11 08:56:40;;;;;;;37.33;19.00;;;;;;;;;;4966848;28;20255;-59
2021/11/11 08:59:05;;;;;;;38.85;20.13;;;;;;;;;;4963246;28;20346;-58
2021/11/11 09:01:31;;;;;;;37.22;19.80;;;;;;;;;;4965613;28;20027;-59
2021/11/11 09:03:58;;;;;;;40.97;20.90;;;;;;;;;;4964122;28;20026;-58
2021/11/11 09:06:24;;;;;;;39.92;21.23;;;;;;;;;;4965152;28;20824;-59
2021/11/11 09:08:52;;;;;;;39.90;22.40;;;;;;;;;;4965153;28;20071;-58
2021/11/11 09:11:18;;;;;;;43.35;22.20;;;;;;;;;;4963998;28;20030;-58
2021/11/11 09:13:45;;;;;;;36.55;21.45;;;;;;;;;;4963569;28;20031;-59
2021/11/11 09:16:12;;;;;;;35.08;20.33;;;;;;;;;;4965187;28;20405;-57
2021/11/11 09:18:39;;;;;;;38.08;19.75;;;;;;;;;;4957028;28;20031;-58
2021/11/11 09:21:08;;;;;;;39.47;21.70;;;;;;;;;;4955642;28;20034;-58
2021/11/11 09:23:34;;;;;;;37.45;21.70;;;;;;;;;;4955862;28;20038;-57
2021/11/11 09:26:01;;;;;;;43.15;23.23;;;;;;;;;;4962497;28;20026;-58
2021/11/11 09:28:27;;;;;;;41.95;21.58;;;;;;;;;;4960781;28;20264;-58
2021/11/11 09:30:53;;;;;;;49.05;21.98;;;;;;;;;;4964345;28;20070;-58
2021/11/11 09:33:18;;;;;;;40.60;22.30;;;;;;;;;;4959139;28;20074;-57
2021/11/11 09:35:44;;;;;;;42.40;22.17;;;;;;;;;;4967427;28;20026;-57
2021/11/11 09:38:09;;;;;;;39.10;21.60;;;;;;;;;;4963906;28;20716;-59
2021/11/11 09:40:35;;;;;;;39.38;21.08;;;;;;;;;;4960719;28;20031;-58
2021/11/11 09:43:01;;;;;;;42.13;22.42;;;;;;;;;;4959985;28;20377;-58
2021/11/11 09:45:30;;;;;;;39.63;22.83;;;;;;;;;;4961761;28;20027;-58
2021/11/11 09:47:56;;;;;;;40.38;21.98;;;;;;;;;;4966136;28;20050;-59
2021/11/11 09:50:26;;;;;;;39.13;21.75;;;;;;;;;;4964075;28;20066;-58
2021/11/11 09:52:52;;;;;;;42.22;22.30;;;;;;;;;;4961263;28;20050;-58
2021/11/11 10:00:51;;;;;;;32.53;19.15;;;;;;;;;;4961356;28;20065;-56
2021/11/11 10:03:17;;;;;;;34.13;18.52;;;;;;;;;;4965061;28;20050;-57
2021/11/11 10:05:43;;;;;;;35.85;20.05;;;;;;;;;;4958961;28;20490;-57
2021/11/11 10:08:28;;;;;;;34.83;18.00;;;;;;;;;;4958528;28;20030;-57
2021/11/11 10:10:54;;;;;;;36.03;20.58;;;;;;;;;;4958683;28;20027;-57
2021/11/11 10:13:21;;;;;;;39.47;19.08;;;;;;;;;;4964468;28;20023;-58
2021/11/11 10:16:07;;;;;;;33.20;18.40;;;;;;;;;;4964837;28;20023;-57
2021/11/11 10:18:38;;;;;;;36.40;19.63;;;;;;;;;;4959700;28;20430;-58
2021/11/11 10:21:21;;;;;;;37.67;20.70;;;;;;;;;;4961002;28;20401;-58
2021/11/11 10:23:47;;;;;;;32.78;19.80;;;;;;;;;;4961761;28;20027;-58
2021/11/11 10:26:26;;;;;;;35.20;20.05;;;;;;;;;;4962595;28;20085;-57
2021/11/11 10:28:52;;;;;;;30.58;18.77;;;;;;;;;;4956178;28;20430;-57
2021/11/11 10:31:19;;;;;;;33.40;19.20;;;;;;;;;;4960492;28;20035;-58
2021/11/11 10:34:07;;;;;;;30.60;18.58;;;;;;;;;;4961399;28;20104;-57
2021/11/11 10:36:48;;;;;;;32.55;18.35;;;;;;;;;;4960270;28;20054;-57
2021/11/11 10:39:17;;;;;;;37.45;20.30;;;;;;;;;;4962921;28;20448;-58
2021/11/11 10:41:44;;;;;;;32.60;19.85;;;;;;;;;;4958633;28;20023;-57
2021/11/11 10:44:35;;;;;;;31.40;19.13;;;;;;;;;;4964055;28;20081;-58
2021/11/11 10:47:04;;;;;;;33.05;19.88;;;;;;;;;;4961281;28;20475;-58
2021/11/11 10:49:38;;;;;;;35.58;18.23;;;;;;;;;;4961873;28;20035;-58
2021/11/11 10:52:23;;;;;;;30.40;18.30;;;;;;;;;;4956277;28;20046;-57
2021/11/11 10:55:06;;;;;;;32.60;18.15;;;;;;;;;;4956823;28;20142;-57
2021/11/11 10:57:39;;;;;;;32.33;18.17;;;;;;;;;;4958846;28;20563;-59
2021/11/11 11:00:16;;;;;;;30.98;19.25;;;;;;;;;;4954917;28;20043;-59
2021/11/11 11:03:14;;;;;;;29.33;18.17;;;;;;;;;;4965367;28;20042;-57
2021/11/11 11:05:45;;;;;;;27.95;16.88;;;;;;;;;;4949982;28;20396;-58
2021/11/11 11:08:16;;;;;;;27.77;18.33;;;;;;;;;;4962142;28;20066;-58
2021/11/11 11:10:44;;;;;;;28.33;17.88;;;;;;;;;;4961586;28;20500;-59
2021/11/11 11:13:16;;;;;;;28.40;17.77;;;;;;;;;;4962556;28;20027;-58
2021/11/11 11:15:46;;;;;;;30.42;18.52;;;;;;;;;;4960488;28;20089;-59
2021/11/11 11:18:13;;;;;;;30.00;18.42;;;;;;;;;;4961399;28;20027;-59
2021/11/11 11:20:39;;;;;;;28.70;18.13;;;;;;;;;;4957961;28;20031;-59
2021/11/11 11:23:17;;;;;;;27.17;17.55;;;;;;;;;;4960997;28;20034;-60
2021/11/11 11:26:07;;;;;;;34.90;19.35;;;;;;;;;;4978260;28;20053;-59
2021/11/11 11:28:48;;;;;;;29.95;18.80;;;;;;;;;;4957061;28;20041;-59
2021/11/11 11:31:26;;;;;;;33.47;18.92;;;;;;;;;;4962754;28;20046;-59
2021/11/11 11:33:52;;;;;;;31.67;19.30;;;;;;;;;;4962198;28;20027;-59
2021/11/11 11:36:31;;;;;;;35.63;19.13;;;;;;;;;;4959232;28;20033;-59
2021/11/11 11:38:56;;;;;;;32.60;20.58;;;;;;;;;;4959021;28;20054;-59
2021/11/11 11:41:38;;;;;;;30.52;19.92;;;;;;;;;;4957315;28;20158;-59
2021/11/11 11:44:26;;;;;;;29.85;19.00;;;;;;;;;;4960062;28;20069;-59
2021/11/11 11:47:52;;;;;;;32.83;19.67;;;;;;;;;;4958589;28;20075;-59
2021/11/11 11:49:58;;;;;;;33.25;21.38;;;;;;;;;;4957519;28;20126;-58
2021/11/11 11:52:26;;;;;;;34.78;19.95;;;;;;;;;;4959015;28;20355;-58
2021/11/11 11:55:15;;;;;;;33.90;21.13;;;;;;;;;;4960271;28;20027;-58
2021/11/11 11:57:54;;;;;;;32.58;20.33;;;;;;;;;;4963625;28;20448;-59
2021/11/11 12:03:24;;;;;;;37.78;22.30;;;;;;;;;;4958947;28;20054;-58
2021/11/11 12:11:23;;;;;;;36.40;21.23;;;;;;;;;;4955346;28;20027;-58
2021/11/11 12:40:05;;;;;;;34.53;21.70;;;;;;;;;;4958471;28;20110;-59
2021/11/11 12:42:46;;;;;;;38.92;21.92;;;;;;;;;;4963177;28;20027;-59
2021/11/11 12:45:12;;;;;;;35.67;20.73;;;;;;;;;;4961077;28;20038;-59
2021/11/11 12:48:04;;;;;;;37.15;21.63;;;;;;;;;;4962244;28;20035;-59
2021/11/11 12:50:58;;;;;;;36.30;22.67;;;;;;;;;;4963815;28;20113;-58
2021/11/11 12:53:34;;;;;;;35.42;22.10;;;;;;;;;;4962330;28;20035;-59
2021/11/11 12:56:00;;;;;;;34.70;22.63;;;;;;;;;;4962657;28;20512;-58
2021/11/11 12:58:33;;;;;;;39.38;21.92;;;;;;;;;;4965289;28;20556;-59
2021/11/11 13:01:04;;;;;;;39.88;22.67;;;;;;;;;;4965990;28;20097;-58
2021/11/11 13:03:48;;;;;;;36.60;22.15;;;;;;;;;;4981285;28;20022;-58
2021/11/11 13:06:33;;;;;;;38.75;22.63;;;;;;;;;;4961685;28;20528;-59
2021/11/11 13:09:00;;;;;;;35.30;22.20;;;;;;;;;;4966091;28;20621;-59
2021/11/11 13:11:27;;;;;;;35.88;20.38;;;;;;;;;;4962686;28;20449;-58
2021/11/11 13:14:05;;;;;;;37.72;22.38;;;;;;;;;;4964671;28;20076;-59
2021/11/11 13:16:30;;;;;;;37.63;22.58;;;;;;;;;;4965994;28;20046;-59
2021/11/11 13:18:56;;;;;;;37.65;23.55;;;;;;;;;;4968694;28;20672;-59
2021/11/11 13:21:39;;;;;;;36.20;23.35;;;;;;;;;;4964609;28;20022;-59
2021/11/11 13:24:28;;;;;;;40.10;25.92;;;;;;;;;;4963628;28;20081;-59
2021/11/11 14:00:49;;;;;;;44.38;24.15;;;;;;;;;;4964798;28;20873;-59
2021/11/11 16:21:16;;;;;;;45.67;23.67;;;;;;;;;;4955041;28;20125;-58
2021/11/11 16:23:48;;;;;;;;;;;;;;;;;;4960012;28;20031;-58
2021/11/11 16:26:18;;;;;;;46.80;24.55;;;;;;;;;;4965379;28;19942;-58
2021/11/11 16:28:47;;;;;;;49.25;28.67;;;;;;;;;;4960202;28;20723;-58
2021/11/11 16:31:15;;;;;;;81.90;44.33;;;;;;;;;;4962558;28;20046;-58
2021/11/11 16:33:42;;;;;;;48.83;25.85;;;;;;;;;;4965846;28;20278;-58
2021/11/11 16:36:07;;;;;;;51.00;26.50;;;;;;;;;;4966594;28;20541;-59
2021/11/11 16:38:34;;;;;;;56.42;26.38;;;;;;;;;;4965057;28;20047;-59
2021/11/11 16:41:00;;;;;;;48.63;25.85;;;;;;;;;;4964069;28;20030;-58
2021/11/11 16:43:25;;;;;;;54.60;30.58;;;;;;;;;;4967370;28;20312;-58
2021/11/11 16:45:51;;;;;;;63.80;29.17;;;;;;;;;;4963004;28;20027;-58
2021/11/11 16:48:16;;;;;;;61.97;29.73;;;;;;;;;;4962317;28;20030;-58
2021/11/11 16:50:43;;;;;;;75.95;36.15;;;;;;;;;;4961822;28;20026;-58
2021/11/11 16:53:09;;;;;;;78.88;39.10;;;;;;;;;;4965696;28;20031;-58
2021/11/11 16:55:35;;;;;;;80.25;41.25;;;;;;;;;;4965007;28;20031;-58
2021/11/11 16:58:01;;;;;;;85.80;42.70;;;;;;;;;;4965618;28;20030;-58
2021/11/11 17:00:26;;;;;;;90.07;43.75;;;;;;;;;;4958910;28;23368;-58
2021/11/11 17:02:52;;;;;;;102.45;48.42;;;;;;;;;;4964232;28;20118;-57
2021/11/11 17:05:22;;;;;;;106.22;49.47;;;;;;;;;;4966151;28;20027;-57
2021/11/11 17:07:50;;;;;;;;;;;;;;;;;;4964772;28;20058;-59
2021/11/11 17:10:15;;;;;;;141.32;69.55;;;;;;;;;;4963517;28;19997;-57
2021/11/11 17:12:41;;;;;;;95.22;48.88;;;;;;;;;;4960902;28;20114;-58
2021/11/11 17:15:08;;;;;;;67.25;34.83;;;;;;;;;;4963313;28;20026;-57
2021/11/11 17:17:35;;;;;;;67.53;36.78;;;;;;;;;;4965506;28;20062;-57
2021/11/11 17:20:01;;;;;;;73.75;35.10;;;;;;;;;;4963735;28;20109;-59
2021/11/11 17:22:43;;;;;;;77.22;36.88;;;;;;;;;;4964215;28;20063;-58
2021/11/11 17:28:13;;;;;;;78.25;32.97;;;;;;;;;;4964775;28;20128;-58
2021/11/11 17:30:43;;;;;;;68.82;31.80;;;;;;;;;;4959681;28;20039;-58
2021/11/11 17:33:10;;;;;;;85.25;38.72;;;;;;;;;;4960462;28;20034;-57
2021/11/11 17:35:36;;;;;;;62.95;30.42;;;;;;;;;;4965592;28;20036;-57
2021/11/11 17:38:03;;;;;;;59.88;26.75;;;;;;;;;;4962229;28;20054;-59
2021/11/11 17:40:28;;;;;;;51.15;25.38;;;;;;;;;;4961683;28;20027;-58
2021/11/11 17:42:54;;;;;;;67.47;32.97;;;;;;;;;;4964630;28;20043;-58
2021/11/11 17:45:31;;;;;;;52.70;25.80;;;;;;;;;;4962832;28;20126;-59
2021/11/11 17:48:00;;;;;;;54.20;25.00;;;;;;;;;;4964175;28;20109;-58
2021/11/11 17:50:31;;;;;;;54.00;25.30;;;;;;;;;;4962769;28;20026;-58
2021/11/11 17:53:09;;;;;;;58.95;29.27;;;;;;;;;;4963692;28;20026;-58
2021/11/11 17:55:46;;;;;;;58.92;28.33;;;;;;;;;;4963184;28;20027;-58
2021/11/11 17:58:13;;;;;;;46.92;24.15;;;;;;;;;;4963562;28;20034;-58
2021/11/11 18:00:43;;;;;;;64.07;28.17;;;;;;;;;;4961903;28;20034;-58
2021/11/11 18:03:16;;;;;;;74.28;31.83;;;;;;;;;;4964077;28;20038;-58
2021/11/11 18:05:42;;;;;;;62.90;25.75;;;;;;;;;;4964772;28;20046;-58
2021/11/11 18:08:17;;;;;;;62.00;28.73;;;;;;;;;;4960484;28;20034;-58
2021/11/11 18:10:44;;;;;;;54.55;27.02;;;;;;;;;;4964291;28;20486;-57
2021/11/11 18:13:14;;;;;;;46.97;23.48;;;;;;;;;;4964936;28;20465;-56
2021/11/11 18:15:43;;;;;;;61.55;27.70;;;;;;;;;;4956715;28;20030;-57
2021/11/11 18:18:08;;;;;;;68.57;32.65;;;;;;;;;;4962647;28;20042;-57
2021/11/11 18:20:35;;;;;;;73.20;35.92;;;;;;;;;;4963104;28;20035;-58